createdAt,value
2018-04-01T00:00:46.732Z,97.50
2018-04-01T00:01:46.714Z,97.78
2018-04-01T00:02:46.689Z,97.69
2018-04-01T00:03:46.681Z,97.41
2018-04-01T00:04:46.655Z,96.83
2018-04-01T00:05:46.627Z,98.92
2018-04-01T00:06:46.715Z,99.30
2018-04-01T00:07:46.583Z,99.99
2018-04-01T00:08:46.564Z,99.77
2018-04-01T00:09:46.543Z,99.49
2018-04-01T00:10:46.521Z,99.77
2018-04-01T00:11:46.511Z,99.97
2018-04-01T00:12:46.476Z,98.64
2018-04-01T00:13:46.456Z,98.83
2018-04-01T00:14:46.434Z,99.49
2018-04-01T00:15:46.415Z,99.02
2018-04-01T00:16:46.391Z,97.60
2018-04-01T00:17:46.372Z,97.69
2018-04-01T00:18:46.351Z,97.97
2018-04-01T00:19:46.332Z,98.64
2018-04-01T00:20:46.306Z,98.45
2018-04-01T00:21:46.398Z,97.69
2018-04-01T00:22:46.266Z,97.50
2018-04-01T00:23:46.242Z,96.55
2018-04-01T00:24:46.223Z,97.64
2018-04-01T00:25:46.202Z,96.41
2018-04-01T00:26:46.180Z,97.55
2018-04-01T00:27:46.159Z,98.30
2018-04-01T00:28:46.151Z,96.88
2018-04-01T00:29:46.120Z,97.55
2018-04-01T00:30:46.095Z,98.11
2018-04-01T00:31:46.076Z,97.55
2018-04-01T00:32:46.053Z,97.64
2018-04-01T00:33:46.032Z,97.74
2018-04-01T00:34:46.010Z,97.55
2018-04-01T00:35:45.992Z,97.74
2018-04-01T00:36:45.974Z,97.69
2018-04-01T00:37:45.949Z,97.22
2018-04-01T00:38:45.936Z,95.79
2018-04-01T00:39:45.904Z,95.65
2018-04-01T00:40:45.882Z,97.26
2018-04-01T00:41:45.867Z,96.36
2018-04-01T00:42:45.847Z,96.12
2018-04-01T00:43:45.818Z,96.41
2018-04-01T00:44:45.798Z,96.31
2018-04-01T00:45:45.778Z,97.26
2018-04-01T00:46:45.764Z,97.92
2018-04-01T00:47:45.738Z,98.40
2018-04-01T00:48:45.742Z,98.68
2018-04-01T00:49:45.692Z,98.78
2018-04-01T00:50:45.673Z,99.16
2018-04-01T00:51:45.749Z,99.35
2018-04-01T00:52:45.634Z,98.78
2018-04-01T00:53:45.611Z,98.68
2018-04-01T00:54:45.587Z,97.74
2018-04-01T00:55:45.564Z,98.11
2018-04-01T00:56:45.539Z,98.59
2018-04-01T00:57:45.520Z,98.97
2018-04-01T00:58:45.506Z,98.59
2018-04-01T00:59:45.477Z,98.59
2018-04-01T01:00:45.456Z,98.49
2018-04-01T01:01:45.580Z,98.21
2018-04-01T01:02:45.412Z,97.74
2018-04-01T01:03:45.392Z,97.26
2018-04-01T01:04:45.375Z,97.26
2018-04-01T01:05:45.348Z,97.26
2018-04-01T01:06:45.326Z,96.31
2018-04-01T01:07:45.306Z,95.74
2018-04-01T01:08:45.286Z,95.27
2018-04-01T01:09:45.275Z,95.65
2018-04-01T01:10:45.240Z,95.55
2018-04-01T01:11:45.217Z,96.88
2018-04-01T01:12:45.200Z,96.74
2018-04-01T01:13:45.177Z,96.93
2018-04-01T01:14:45.156Z,94.98
2018-04-01T01:15:45.139Z,95.07
2018-04-01T01:16:45.112Z,94.98
2018-04-01T01:17:45.101Z,95.12
2018-04-01T01:18:45.069Z,96.26
2018-04-01T01:19:45.052Z,96.36
2018-04-01T01:20:45.092Z,95.22
2018-04-01T01:21:45.004Z,95.89
2018-04-01T01:22:45.001Z,96.36
2018-04-01T01:23:44.971Z,95.79
2018-04-01T01:24:44.946Z,96.55
2018-04-01T01:25:44.927Z,97.12
2018-04-01T01:26:44.898Z,96.17
2018-04-01T01:27:44.876Z,95.93
2018-04-01T01:28:44.855Z,96.03
2018-04-01T01:29:44.836Z,96.31
2018-04-01T01:30:44.815Z,97.55
2018-04-01T01:31:44.793Z,97.55
2018-04-01T01:32:44.776Z,96.88
2018-04-01T01:33:44.751Z,97.83
2018-04-01T01:34:44.727Z,96.31
2018-04-01T01:35:44.706Z,96.88
2018-04-01T01:36:44.696Z,97.36
2018-04-01T01:37:44.664Z,98.02
2018-04-01T01:38:44.643Z,99.16
2018-04-01T01:39:44.623Z,98.78
2018-04-01T01:40:44.602Z,98.21
2018-04-01T01:41:44.582Z,98.87
2018-04-01T01:42:44.556Z,98.59
2018-04-01T01:43:44.536Z,99.44
2018-04-01T01:44:44.526Z,99.44
2018-04-01T01:45:44.491Z,99.96
2018-04-01T01:46:44.472Z,99.77
2018-04-01T01:47:44.449Z,99.99
2018-04-01T01:48:44.434Z,99.99
2018-04-01T01:49:44.407Z,99.99
2018-04-01T01:50:44.539Z,99.87
2018-04-01T01:51:44.361Z,99.99
2018-04-01T01:52:44.341Z,99.99
2018-04-01T01:53:44.423Z,99.99
2018-04-01T01:54:44.300Z,99.99
2018-04-01T01:55:44.273Z,99.99
2018-04-01T01:56:44.254Z,99.99
2018-04-01T01:57:44.230Z,99.99
2018-04-01T01:58:44.210Z,99.73
2018-04-01T01:59:44.196Z,99.99
2018-04-01T02:00:44.165Z,99.96
2018-04-01T02:01:44.158Z,99.99
2018-04-01T02:02:44.123Z,99.99
2018-04-01T02:03:44.099Z,99.99
2018-04-01T02:04:44.078Z,99.99
2018-04-01T02:05:44.054Z,98.21
2018-04-01T02:06:44.035Z,99.39
2018-04-01T02:07:44.014Z,99.68
2018-04-01T02:08:43.993Z,99.58
2018-04-01T02:09:43.969Z,99.99
2018-04-01T02:10:43.944Z,99.99
2018-04-01T02:11:43.928Z,99.99
2018-04-01T02:12:43.927Z,99.99
2018-04-01T02:13:43.877Z,99.99
2018-04-01T02:14:43.855Z,99.68
2018-04-01T02:15:43.851Z,99.99
2018-04-01T02:16:43.812Z,99.99
2018-04-01T02:17:43.789Z,99.99
2018-04-01T02:18:43.774Z,99.99
2018-04-01T02:19:43.748Z,99.99
2018-04-01T02:20:43.740Z,98.02
2018-04-01T02:21:43.705Z,98.44
2018-04-01T02:22:43.680Z,98.73
2018-04-01T02:23:43.655Z,98.73
2018-04-01T02:24:43.636Z,97.88
2018-04-01T02:25:43.620Z,98.35
2018-04-01T02:26:43.589Z,99.11
2018-04-01T02:27:43.569Z,98.30
2018-04-01T02:28:43.548Z,98.16
2018-04-01T02:29:43.527Z,98.82
2018-04-01T02:30:43.502Z,98.82
2018-04-01T02:31:43.482Z,98.78
2018-04-01T02:32:43.462Z,99.44
2018-04-01T02:33:43.439Z,98.78
2018-04-01T02:34:43.418Z,98.11
2018-04-01T02:35:43.389Z,97.36
2018-04-01T02:36:43.367Z,97.26
2018-04-01T02:37:43.349Z,96.97
2018-04-01T02:38:43.326Z,96.97
2018-04-01T02:39:43.300Z,97.36
2018-04-01T02:40:43.283Z,97.74
2018-04-01T02:41:43.261Z,97.83
2018-04-01T02:42:43.248Z,98.11
2018-04-01T02:43:43.214Z,98.11
2018-04-01T02:44:43.195Z,97.26
2018-04-01T02:45:43.284Z,96.88
2018-04-01T02:46:43.154Z,97.40
2018-04-01T02:47:43.128Z,97.21
2018-04-01T02:48:43.169Z,97.69
2018-04-01T02:49:43.085Z,98.07
2018-04-01T02:50:43.063Z,98.87
2018-04-01T02:51:43.054Z,98.68
2018-04-01T02:52:43.024Z,98.59
2018-04-01T02:53:42.996Z,97.64
2018-04-01T02:54:42.990Z,97.17
2018-04-01T02:55:42.954Z,97.45
2018-04-01T02:56:42.932Z,97.07
2018-04-01T02:57:42.908Z,96.03
2018-04-01T02:58:42.885Z,95.27
2018-04-01T02:59:42.867Z,95.65
2018-04-01T03:00:42.842Z,95.74
2018-04-01T03:01:42.823Z,96.88
2018-04-01T03:02:42.808Z,96.31
2018-04-01T03:03:42.779Z,96.03
2018-04-01T03:04:42.807Z,96.12
2018-04-01T03:05:42.734Z,97.07
2018-04-01T03:06:42.715Z,95.17
2018-04-01T03:07:42.712Z,95.93
2018-04-01T03:08:42.671Z,96.88
2018-04-01T03:09:42.651Z,97.26
2018-04-01T03:10:42.627Z,96.31
2018-04-01T03:11:42.604Z,97.26
2018-04-01T03:12:42.580Z,97.07
2018-04-01T03:13:42.563Z,97.17
2018-04-01T03:14:42.550Z,97.64
2018-04-01T03:15:42.526Z,98.11
2018-04-01T03:16:42.497Z,96.97
2018-04-01T03:17:42.476Z,96.59
2018-04-01T03:18:42.454Z,97.26
2018-04-01T03:19:42.448Z,96.12
2018-04-01T03:20:42.411Z,95.36
2018-04-01T03:21:42.389Z,96.41
2018-04-01T03:22:42.370Z,96.64
2018-04-01T03:23:42.361Z,97.69
2018-04-01T03:24:42.326Z,98.59
2018-04-01T03:25:42.304Z,98.30
2018-04-01T03:26:42.281Z,98.21
2018-04-01T03:27:42.271Z,97.88
2018-04-01T03:28:42.240Z,97.59
2018-04-01T03:29:42.214Z,98.73
2018-04-01T03:30:42.198Z,98.11
2018-04-01T03:31:42.214Z,97.88
2018-04-01T03:32:42.150Z,98.44
2018-04-01T03:33:42.130Z,98.54
2018-04-01T03:34:42.134Z,99.20
2018-04-01T03:35:42.085Z,99.96
2018-04-01T03:36:42.062Z,99.30
2018-04-01T03:37:42.041Z,99.68
2018-04-01T03:38:42.021Z,99.99
2018-04-01T03:39:41.992Z,99.99
2018-04-01T03:40:41.970Z,99.99
2018-04-01T03:41:41.951Z,99.82
2018-04-01T03:42:41.935Z,99.26
2018-04-01T03:43:41.907Z,97.74
2018-04-01T03:44:41.896Z,98.30
2018-04-01T03:45:41.863Z,98.21
2018-04-01T03:46:41.840Z,97.92
2018-04-01T03:47:41.817Z,98.78
2018-04-01T03:48:41.798Z,99.11
2018-04-01T03:49:41.774Z,99.87
2018-04-01T03:50:41.888Z,99.99
2018-04-01T03:51:41.731Z,99.99
2018-04-01T03:52:41.707Z,99.99
2018-04-01T03:53:41.775Z,98.78
2018-04-01T03:54:41.671Z,98.44
2018-04-01T03:55:41.642Z,99.49
2018-04-01T03:56:41.620Z,99.63
2018-04-01T03:57:41.595Z,99.99
2018-04-01T03:58:41.576Z,99.82
2018-04-01T03:59:41.551Z,99.99
2018-04-01T04:00:41.534Z,99.99
2018-04-01T04:01:41.508Z,99.99
2018-04-01T04:02:41.487Z,99.99
2018-04-01T04:03:41.465Z,99.91
2018-04-01T04:04:41.445Z,99.26
2018-04-01T04:05:41.420Z,99.44
2018-04-01T04:06:41.398Z,99.44
2018-04-01T04:07:41.375Z,98.78
2018-04-01T04:08:41.355Z,98.40
2018-04-01T04:09:41.334Z,97.83
2018-04-01T04:10:41.309Z,98.21
2018-04-01T04:11:41.286Z,97.92
2018-04-01T04:12:41.305Z,98.97
2018-04-01T04:13:41.244Z,98.49
2018-04-01T04:14:41.222Z,98.68
2018-04-01T04:15:41.203Z,98.97
2018-04-01T04:16:41.179Z,98.40
2018-04-01T04:17:41.165Z,98.02
2018-04-01T04:18:41.138Z,97.36
2018-04-01T04:19:41.113Z,96.78
2018-04-01T04:20:41.091Z,96.22
2018-04-01T04:21:41.074Z,95.65
2018-04-01T04:22:41.048Z,96.97
2018-04-01T04:23:41.025Z,97.26
2018-04-01T04:24:41.014Z,96.69
2018-04-01T04:25:40.985Z,96.31
2018-04-01T04:26:40.963Z,94.98
2018-04-01T04:27:40.959Z,95.27
2018-04-01T04:28:40.929Z,95.27
2018-04-01T04:29:40.905Z,97.02
2018-04-01T04:30:40.879Z,97.88
2018-04-01T04:31:40.858Z,98.25
2018-04-01T04:32:40.842Z,98.63
2018-04-01T04:33:40.819Z,99.11
2018-04-01T04:34:40.793Z,98.40
2018-04-01T04:35:40.767Z,97.69
2018-04-01T04:36:40.745Z,97.78
2018-04-01T04:37:40.727Z,98.68
2018-04-01T04:38:40.705Z,98.30
2018-04-01T04:39:40.714Z,97.07
2018-04-01T04:40:40.656Z,96.88
2018-04-01T04:41:40.637Z,97.17
2018-04-01T04:42:40.628Z,97.59
2018-04-01T04:43:40.591Z,98.82
2018-04-01T04:44:40.571Z,99.58
2018-04-01T04:45:40.550Z,99.87
2018-04-01T04:46:40.525Z,99.77
2018-04-01T04:47:40.502Z,99.01
2018-04-01T04:48:40.483Z,98.44
2018-04-01T04:49:40.464Z,98.73
2018-04-01T04:50:40.440Z,99.77
2018-04-01T04:51:40.414Z,99.99
2018-04-01T04:52:40.392Z,99.99
2018-04-01T04:53:40.369Z,99.99
2018-04-01T04:54:40.350Z,99.58
2018-04-01T04:55:40.323Z,99.99
2018-04-01T04:56:40.305Z,99.99
2018-04-01T04:57:40.280Z,99.99
2018-04-01T04:58:40.386Z,99.99
2018-04-01T04:59:40.237Z,99.68
2018-04-01T05:00:40.218Z,98.73
2018-04-01T05:01:40.251Z,99.30
2018-04-01T05:02:40.181Z,99.99
2018-04-01T05:03:40.152Z,99.58
2018-04-01T05:04:40.127Z,99.58
2018-04-01T05:05:40.108Z,98.44
2018-04-01T05:06:40.083Z,99.01
2018-04-01T05:07:40.058Z,98.73
2018-04-01T05:08:40.037Z,98.92
2018-04-01T05:09:40.022Z,98.49
2018-04-01T05:10:39.993Z,98.78
2018-04-01T05:11:39.970Z,98.49
2018-04-01T05:12:39.947Z,98.30
2018-04-01T05:13:39.932Z,98.30
2018-04-01T05:14:39.905Z,98.25
2018-04-01T05:15:39.889Z,98.25
2018-04-01T05:16:39.858Z,99.68
2018-04-01T05:17:39.837Z,99.99
2018-04-01T05:18:39.818Z,99.99
2018-04-01T05:19:39.794Z,99.99
2018-04-01T05:20:39.771Z,99.82
2018-04-01T05:21:39.751Z,99.82
2018-04-01T05:22:39.729Z,99.44
2018-04-01T05:23:39.705Z,98.97
2018-04-01T05:24:39.686Z,99.44
2018-04-01T05:25:39.661Z,99.44
2018-04-01T05:26:39.641Z,99.82
2018-04-01T05:27:39.617Z,99.35
2018-04-01T05:28:39.595Z,98.40
2018-04-01T05:29:39.576Z,98.59
2018-04-01T05:30:39.565Z,98.78
2018-04-01T05:31:39.600Z,98.49
2018-04-01T05:32:39.503Z,98.40
2018-04-01T05:33:39.485Z,98.21
2018-04-01T05:34:39.528Z,97.45
2018-04-01T05:35:39.440Z,98.02
2018-04-01T05:36:39.419Z,98.49
2018-04-01T05:37:39.397Z,98.49
2018-04-01T05:38:39.375Z,98.11
2018-04-01T05:39:39.354Z,98.11
2018-04-01T05:40:39.338Z,97.74
2018-04-01T05:41:39.309Z,98.21
2018-04-01T05:42:39.287Z,98.30
2018-04-01T05:43:39.264Z,98.44
2018-04-01T05:44:39.246Z,98.82
2018-04-01T05:45:39.244Z,99.91
2018-04-01T05:46:39.202Z,99.11
2018-04-01T05:47:39.177Z,99.96
2018-04-01T05:48:39.155Z,99.99
2018-04-01T05:49:39.148Z,99.99
2018-04-01T05:50:39.112Z,99.99
2018-04-01T05:51:39.093Z,99.99
2018-04-01T05:52:39.074Z,99.99
2018-04-01T05:53:39.054Z,99.73
2018-04-01T05:54:39.022Z,98.49
2018-04-01T05:55:39.002Z,98.21
2018-04-01T05:56:39.039Z,97.83
2018-04-01T05:57:38.969Z,97.55
2018-04-01T05:58:38.936Z,98.21
2018-04-01T05:59:38.920Z,98.30
2018-04-01T06:00:38.899Z,98.59
2018-04-01T06:01:38.870Z,98.97
2018-04-01T06:02:38.850Z,98.21
2018-04-01T06:03:38.825Z,98.68
2018-04-01T06:04:38.803Z,99.06
2018-04-01T06:05:38.782Z,99.44
2018-04-01T06:06:38.761Z,99.06
2018-04-01T06:07:38.740Z,98.40
2018-04-01T06:08:38.715Z,99.01
2018-04-01T06:09:38.695Z,99.99
2018-04-01T06:10:38.672Z,99.99
2018-04-01T06:11:38.654Z,99.99
2018-04-01T06:12:38.630Z,99.99
2018-04-01T06:13:38.614Z,98.87
2018-04-01T06:14:38.585Z,99.91
2018-04-01T06:15:38.560Z,99.73
2018-04-01T06:16:38.545Z,98.40
2018-04-01T06:17:38.524Z,98.73
2018-04-01T06:18:38.501Z,99.39
2018-04-01T06:19:38.487Z,99.77
2018-04-01T06:20:38.452Z,99.68
2018-04-01T06:21:38.437Z,99.49
2018-04-01T06:22:38.408Z,99.49
2018-04-01T06:23:38.387Z,99.39
2018-04-01T06:24:38.364Z,99.77
2018-04-01T06:25:38.340Z,99.68
2018-04-01T06:26:38.330Z,99.77
2018-04-01T06:27:38.298Z,99.73
2018-04-01T06:28:38.285Z,99.63
2018-04-01T06:29:38.253Z,99.99
2018-04-01T06:30:38.233Z,99.44
2018-04-01T06:31:38.212Z,99.54
2018-04-01T06:32:38.187Z,99.49
2018-04-01T06:33:38.172Z,99.99
2018-04-01T06:34:38.143Z,99.99
2018-04-01T06:35:38.128Z,99.99
2018-04-01T06:36:38.098Z,99.99
2018-04-01T06:37:38.076Z,99.99
2018-04-01T06:38:38.056Z,99.99
2018-04-01T06:39:38.053Z,99.49
2018-04-01T06:40:38.011Z,99.99
2018-04-01T06:41:37.989Z,99.99
2018-04-01T06:42:37.971Z,99.99
2018-04-01T06:43:37.946Z,99.99
2018-04-01T06:44:37.921Z,99.99
2018-04-01T06:45:38.021Z,99.99
2018-04-01T06:46:37.877Z,99.99
2018-04-01T06:47:37.855Z,99.99
2018-04-01T06:48:37.838Z,99.99
2018-04-01T06:49:37.823Z,99.99
2018-04-01T06:50:37.789Z,99.99
2018-04-01T06:51:37.766Z,99.99
2018-04-01T06:52:37.749Z,99.99
2018-04-01T06:53:37.724Z,99.99
2018-04-01T06:54:37.722Z,99.99
2018-04-01T06:55:37.686Z,99.99
2018-04-01T06:56:37.656Z,99.99
2018-04-01T06:57:37.636Z,99.99
2018-04-01T06:58:37.615Z,99.99
2018-04-01T06:59:37.597Z,99.99
2018-04-01T07:00:37.576Z,99.99
2018-04-01T07:01:37.554Z,99.99
2018-04-01T07:02:37.530Z,99.99
2018-04-01T07:03:37.506Z,99.99
2018-04-01T07:04:37.562Z,99.99
2018-04-01T07:05:37.458Z,99.99
2018-04-01T07:06:37.451Z,99.99
2018-04-01T07:07:37.424Z,99.99
2018-04-01T07:08:37.391Z,99.99
2018-04-01T07:09:37.369Z,99.99
2018-04-01T07:10:37.345Z,99.99
2018-04-01T07:11:37.323Z,99.99
2018-04-01T07:12:37.302Z,99.99
2018-04-01T07:13:37.279Z,99.99
2018-04-01T07:14:37.253Z,99.99
2018-04-01T07:15:37.281Z,99.99
2018-04-01T07:16:37.212Z,99.99
2018-04-01T07:17:37.193Z,99.99
2018-04-01T07:18:37.182Z,99.99
2018-04-01T07:19:37.142Z,99.99
2018-04-01T07:20:37.121Z,99.99
2018-04-01T07:21:37.098Z,99.99
2018-04-01T07:22:37.076Z,99.99
2018-04-01T07:23:37.079Z,99.99
2018-04-01T07:24:37.032Z,99.99
2018-04-01T07:25:37.011Z,99.99
2018-04-01T07:26:36.986Z,99.99
2018-04-01T07:27:36.967Z,99.99
2018-04-01T07:28:36.944Z,99.99
2018-04-01T07:29:36.920Z,99.99
2018-04-01T07:30:36.917Z,99.99
2018-04-01T07:31:36.876Z,99.99
2018-04-01T07:32:36.848Z,99.99
2018-04-01T07:33:36.829Z,99.99
2018-04-01T07:34:36.915Z,99.99
2018-04-01T07:35:36.783Z,99.99
2018-04-01T07:36:36.763Z,99.99
2018-04-01T07:37:36.761Z,99.99
2018-04-01T07:38:36.720Z,99.87
2018-04-01T07:39:36.702Z,99.99
2018-04-01T07:40:36.674Z,99.99
2018-04-01T07:41:36.650Z,99.99
2018-04-01T07:42:36.629Z,99.99
2018-04-01T07:43:36.603Z,99.99
2018-04-01T07:44:36.582Z,99.99
2018-04-01T07:45:36.565Z,99.87
2018-04-01T07:46:36.537Z,99.96
2018-04-01T07:47:36.519Z,99.77
2018-04-01T07:48:36.498Z,99.49
2018-04-01T07:49:36.473Z,99.68
2018-04-01T07:50:36.451Z,99.54
2018-04-01T07:51:36.427Z,99.54
2018-04-01T07:52:36.407Z,99.99
2018-04-01T07:53:36.424Z,99.99
2018-04-01T07:54:36.362Z,99.99
2018-04-01T07:55:36.347Z,97.59
2018-04-01T07:56:36.328Z,99.99
2018-04-01T07:57:36.296Z,99.99
2018-04-01T07:58:36.277Z,99.99
2018-04-01T07:59:36.260Z,99.99
2018-04-01T08:00:36.235Z,99.99
2018-04-01T08:01:36.212Z,98.44
2018-04-01T08:02:36.190Z,99.99
2018-04-01T08:03:36.179Z,99.99
2018-04-01T08:04:36.157Z,99.99
2018-04-01T08:05:36.133Z,99.99
2018-04-01T08:06:36.241Z,99.99
2018-04-01T08:07:36.083Z,99.99
2018-04-01T08:08:36.066Z,98.40
2018-04-01T08:09:36.049Z,97.07
2018-04-01T08:10:36.019Z,97.17
2018-04-01T08:11:35.997Z,97.26
2018-04-01T08:12:35.984Z,97.55
2018-04-01T08:13:35.965Z,98.02
2018-04-01T08:14:35.950Z,99.06
2018-04-01T08:15:35.909Z,98.87
2018-04-01T08:16:35.889Z,98.49
2018-04-01T08:17:35.867Z,97.92
2018-04-01T08:18:35.861Z,97.36
2018-04-01T08:19:35.824Z,98.59
2018-04-01T08:20:35.816Z,98.78
2018-04-01T08:21:35.784Z,98.11
2018-04-01T08:22:35.765Z,98.11
2018-04-01T08:23:35.760Z,97.92
2018-04-01T08:24:35.732Z,97.64
2018-04-01T08:25:35.707Z,98.11
2018-04-01T08:26:35.760Z,98.49
2018-04-01T08:27:35.655Z,98.21
2018-04-01T08:28:35.640Z,97.64
2018-04-01T08:29:35.618Z,97.64
2018-04-01T08:30:35.593Z,97.36
2018-04-01T08:31:35.574Z,97.36
2018-04-01T08:32:35.553Z,97.74
2018-04-01T08:33:35.532Z,98.11
2018-04-01T08:34:35.511Z,97.64
2018-04-01T08:35:35.492Z,97.92
2018-04-01T08:36:35.625Z,97.78
2018-04-01T08:37:35.452Z,97.60
2018-04-01T08:38:35.427Z,96.93
2018-04-01T08:39:35.436Z,96.45
2018-04-01T08:40:35.387Z,95.98
2018-04-01T08:41:35.367Z,95.31
2018-04-01T08:42:35.348Z,95.22
2018-04-01T08:43:35.325Z,94.93
2018-04-01T08:44:35.304Z,94.74
2018-04-01T08:45:35.286Z,94.65
2018-04-01T08:46:35.266Z,95.03
2018-04-01T08:47:35.256Z,94.27
2018-04-01T08:48:35.224Z,94.84
2018-04-01T08:49:35.203Z,95.03
2018-04-01T08:50:35.193Z,95.41
2018-04-01T08:51:35.164Z,93.04
2018-04-01T08:52:35.301Z,95.17
2018-04-01T08:53:35.126Z,97.83
2018-04-01T08:54:35.105Z,98.30
2018-04-01T08:55:35.107Z,97.92
2018-04-01T08:56:35.069Z,98.49
2018-04-01T08:57:35.050Z,98.11
2018-04-01T08:58:35.025Z,97.31
2018-04-01T08:59:35.059Z,95.07
2018-04-01T09:00:34.984Z,96.12
2018-04-01T09:01:34.972Z,98.11
2018-04-01T09:02:34.949Z,99.06
2018-04-01T09:03:34.925Z,98.68
2018-04-01T09:04:34.902Z,98.87
2018-04-01T09:05:34.885Z,98.40
2018-04-01T09:06:34.873Z,97.74
2018-04-01T09:07:34.842Z,97.31
2018-04-01T09:08:34.823Z,96.83
2018-04-01T09:09:34.804Z,96.26
2018-04-01T09:10:34.783Z,96.08
2018-04-01T09:11:34.781Z,96.26
2018-04-01T09:12:34.743Z,96.64
2018-04-01T09:13:34.722Z,97.22
2018-04-01T09:14:34.714Z,95.12
2018-04-01T09:15:34.692Z,95.17
2018-04-01T09:16:34.661Z,96.69
2018-04-01T09:17:34.697Z,97.45
2018-04-01T09:18:34.622Z,97.69
2018-04-01T09:19:34.602Z,97.02
2018-04-01T09:20:34.582Z,96.83
2018-04-01T09:21:34.576Z,96.55
2018-04-01T09:22:34.549Z,97.02
2018-04-01T09:23:34.519Z,95.98
2018-04-01T09:24:34.501Z,94.84
2018-04-01T09:25:34.482Z,95.22
2018-04-01T09:26:34.463Z,95.31
2018-04-01T09:27:34.473Z,95.31
2018-04-01T09:28:34.418Z,94.08
2018-04-01T09:29:34.401Z,95.31
2018-04-01T09:30:34.380Z,95.22
2018-04-01T09:31:34.362Z,96.74
2018-04-01T09:32:34.338Z,95.31
2018-04-01T09:33:34.320Z,96.36
2018-04-01T09:34:34.300Z,97.60
2018-04-01T09:35:34.278Z,97.41
2018-04-01T09:36:34.257Z,96.55
2018-04-01T09:37:34.237Z,96.88
2018-04-01T09:38:34.229Z,97.64
2018-04-01T09:39:34.196Z,98.11
2018-04-01T09:40:34.178Z,97.64
2018-04-01T09:41:34.159Z,97.64
2018-04-01T09:42:34.145Z,98.02
2018-04-01T09:43:34.117Z,98.59
2018-04-01T09:44:34.096Z,98.02
2018-04-01T09:45:34.076Z,97.07
2018-04-01T09:46:34.062Z,98.11
2018-04-01T09:47:34.033Z,98.11
2018-04-01T09:48:34.014Z,97.55
2018-04-01T09:49:34.010Z,97.26
2018-04-01T09:50:33.975Z,98.11
2018-04-01T09:51:33.961Z,98.40
2018-04-01T09:52:33.933Z,99.16
2018-04-01T09:53:33.982Z,98.78
2018-04-01T09:54:33.984Z,96.97
2018-04-01T09:55:33.871Z,96.41
2018-04-01T09:56:33.852Z,97.07
2018-04-01T09:57:33.840Z,97.92
2018-04-01T09:58:33.814Z,97.83
2018-04-01T09:59:33.788Z,96.31
2018-04-01T10:00:33.781Z,96.88
2018-04-01T10:01:33.749Z,96.31
2018-04-01T10:02:33.728Z,96.88
2018-04-01T10:03:33.705Z,97.55
2018-04-01T10:04:33.686Z,98.68
2018-04-01T10:05:33.664Z,98.21
2018-04-01T10:06:33.644Z,97.64
2018-04-01T10:07:33.635Z,97.64
2018-04-01T10:08:33.603Z,97.55
2018-04-01T10:09:33.586Z,98.11
2018-04-01T10:10:33.566Z,97.26
2018-04-01T10:11:33.536Z,97.55
2018-04-01T10:12:33.516Z,98.11
2018-04-01T10:13:33.510Z,98.49
2018-04-01T10:14:33.475Z,98.11
2018-04-01T10:15:33.461Z,98.11
2018-04-01T10:16:33.449Z,98.59
2018-04-01T10:17:33.410Z,98.02
2018-04-01T10:18:33.391Z,98.02
2018-04-01T10:19:33.395Z,97.74
2018-04-01T10:20:33.353Z,97.74
2018-04-01T10:21:33.330Z,97.45
2018-04-01T10:22:33.310Z,96.41
2018-04-01T10:23:33.332Z,96.31
2018-04-01T10:24:33.271Z,96.59
2018-04-01T10:25:33.244Z,96.69
2018-04-01T10:26:33.226Z,97.17
2018-04-01T10:27:33.203Z,97.74
2018-04-01T10:28:33.184Z,97.36
2018-04-01T10:29:33.165Z,97.92
2018-04-01T10:30:33.142Z,97.07
2018-04-01T10:31:33.123Z,97.64
2018-04-01T10:32:33.146Z,97.45
2018-04-01T10:33:33.079Z,96.78
2018-04-01T10:34:33.057Z,96.03
2018-04-01T10:35:33.056Z,96.41
2018-04-01T10:36:33.019Z,96.45
2018-04-01T10:37:33.009Z,95.93
2018-04-01T10:38:32.977Z,96.03
2018-04-01T10:39:32.952Z,97.07
2018-04-01T10:40:32.934Z,97.17
2018-04-01T10:41:32.911Z,96.78
2018-04-01T10:42:32.978Z,96.97
2018-04-01T10:43:32.887Z,95.93
2018-04-01T10:44:32.849Z,95.84
2018-04-01T10:45:32.829Z,96.17
2018-04-01T10:46:32.809Z,95.74
2018-04-01T10:47:32.790Z,96.55
2018-04-01T10:48:32.777Z,97.02
2018-04-01T10:49:32.804Z,96.36
2018-04-01T10:50:32.736Z,95.22
2018-04-01T10:51:32.706Z,95.74
2018-04-01T10:52:32.694Z,95.74
2018-04-01T10:53:32.671Z,96.22
2018-04-01T10:54:32.645Z,96.31
2018-04-01T10:55:32.626Z,96.55
2018-04-01T10:56:32.613Z,95.79
2018-04-01T10:57:32.586Z,95.70
2018-04-01T10:58:32.565Z,95.70
2018-04-01T10:59:32.546Z,95.31
2018-04-01T11:00:32.520Z,95.36
2018-04-01T11:01:32.501Z,95.27
2018-04-01T11:02:32.480Z,95.31
2018-04-01T11:03:32.466Z,95.12
2018-04-01T11:04:32.440Z,94.65
2018-04-01T11:05:32.418Z,94.18
2018-04-01T11:06:32.506Z,94.74
2018-04-01T11:07:32.377Z,94.65
2018-04-01T11:08:32.356Z,94.74
2018-04-01T11:09:32.397Z,94.84
2018-04-01T11:10:32.316Z,95.03
2018-04-01T11:11:32.296Z,94.27
2018-04-01T11:12:32.275Z,93.70
2018-04-01T11:13:32.257Z,93.41
2018-04-01T11:14:32.247Z,93.51
2018-04-01T11:15:32.216Z,93.89
2018-04-01T11:16:32.208Z,93.32
2018-04-01T11:17:32.176Z,93.23
2018-04-01T11:18:32.157Z,91.89
2018-04-01T11:19:32.142Z,93.08
2018-04-01T11:20:32.117Z,92.90
2018-04-01T11:21:32.094Z,91.66
2018-04-01T11:22:32.080Z,91.38
2018-04-01T11:23:32.056Z,90.61
2018-04-01T11:24:32.037Z,89.67
2018-04-01T11:25:32.131Z,89.67
2018-04-01T11:26:32.001Z,90.14
2018-04-01T11:27:31.977Z,90.33
2018-04-01T11:28:31.967Z,89.86
2018-04-01T11:29:31.941Z,90.05
2018-04-01T11:30:31.921Z,90.42
2018-04-01T11:31:31.919Z,89.76
2018-04-01T11:32:31.891Z,90.33
2018-04-01T11:33:31.861Z,90.23
2018-04-01T11:34:31.847Z,90.61
2018-04-01T11:35:31.832Z,90.71
2018-04-01T11:36:31.809Z,89.95
2018-04-01T11:37:31.786Z,89.09
2018-04-01T11:38:31.775Z,88.43
2018-04-01T11:39:31.750Z,88.81
2018-04-01T11:40:31.731Z,89.38
2018-04-01T11:41:31.716Z,88.81
2018-04-01T11:42:31.693Z,89.00
2018-04-01T11:43:31.673Z,87.76
2018-04-01T11:44:31.658Z,89.00
2018-04-01T11:45:31.636Z,89.38
2018-04-01T11:46:31.616Z,88.34
2018-04-01T11:47:31.678Z,88.43
2018-04-01T11:48:31.597Z,88.71
2018-04-01T11:49:31.565Z,88.81
2018-04-01T11:50:31.551Z,88.43
2018-04-01T11:51:31.524Z,88.53
2018-04-01T11:52:31.509Z,88.00
2018-04-01T11:53:31.494Z,87.10
2018-04-01T11:54:31.495Z,87.19
2018-04-01T11:55:31.560Z,87.67
2018-04-01T11:56:31.430Z,87.10
2018-04-01T11:57:31.415Z,87.57
2018-04-01T11:58:31.402Z,87.48
2018-04-01T11:59:31.378Z,87.38
2018-04-01T12:00:31.362Z,87.29
2018-04-01T12:01:31.342Z,87.34
2018-04-01T12:02:31.332Z,87.43
2018-04-01T12:03:31.312Z,87.52
2018-04-01T12:04:31.294Z,86.86
2018-04-01T12:05:31.267Z,86.76
2018-04-01T12:06:31.255Z,86.57
2018-04-01T12:07:31.242Z,86.47
2018-04-01T12:08:31.221Z,86.57
2018-04-01T12:09:31.204Z,86.86
2018-04-01T12:10:31.180Z,86.67
2018-04-01T12:11:31.161Z,86.57
2018-04-01T12:12:31.158Z,86.47
2018-04-01T12:13:31.148Z,86.00
2018-04-01T12:14:31.106Z,85.76
2018-04-01T12:15:31.108Z,85.76
2018-04-01T12:16:31.068Z,85.19
2018-04-01T12:17:31.145Z,85.57
2018-04-01T12:18:31.035Z,84.81
2018-04-01T12:19:31.016Z,84.58
2018-04-01T12:20:31.002Z,83.82
2018-04-01T12:21:30.980Z,84.39
2018-04-01T12:22:30.967Z,84.01
2018-04-01T12:23:30.949Z,84.48
2018-04-01T12:24:30.929Z,85.05
2018-04-01T12:25:30.911Z,85.72
2018-04-01T12:26:30.895Z,86.10
2018-04-01T12:27:30.874Z,85.05
2018-04-01T12:28:30.855Z,84.67
2018-04-01T12:29:30.839Z,84.86
2018-04-01T12:30:30.832Z,84.77
2018-04-01T12:31:30.805Z,84.77
2018-04-01T12:32:30.786Z,84.95
2018-04-01T12:33:30.784Z,84.95
2018-04-01T12:34:30.762Z,85.34
2018-04-01T12:35:30.733Z,85.05
2018-04-01T12:36:30.717Z,84.10
2018-04-01T12:37:30.697Z,84.39
2018-04-01T12:38:30.683Z,84.14
2018-04-01T12:39:30.671Z,84.33
2018-04-01T12:40:30.646Z,84.14
2018-04-01T12:41:30.628Z,83.76
2018-04-01T12:42:30.614Z,83.48
2018-04-01T12:43:30.597Z,83.48
2018-04-01T12:44:30.641Z,83.39
2018-04-01T12:45:30.558Z,82.86
2018-04-01T12:46:30.542Z,82.24
2018-04-01T12:47:30.582Z,82.15
2018-04-01T12:48:30.537Z,82.24
2018-04-01T12:49:30.489Z,81.05
2018-04-01T12:50:30.476Z,80.95
2018-04-01T12:51:30.454Z,80.82
2018-04-01T12:52:30.433Z,81.38